Republica Dominicana

METAR

SADR31 MDSD 101900Z
METAR
METAR MDPP 101900Z 09010KT 9999 SCT020 28/25 Q1016=
METAR MDST 101900Z 16005KT 9999 SCT018 25/23 Q1016=
METAR MDPC 101900Z 07012KT 9999 BKN025 29/22 Q1016=
METAR MDBH 101900Z 13010KT 9999 FEW024 31/23 Q1015=
METAR MDJB 101900Z 09010KT 6000 RA FEW014CB BKN016 SCT070 26/25
Q1016 CB SE/S/NW=
METAR MDSD 101900Z 12006KT 8000 VCSH BKN016 2523 Q1015 RERA=
METAR MDLR 101900Z 09008KT 8000 VCSH SCT018 29/23 Q1014 RERA=
METAR MDCY 101900Z 07012KT 9999 SCT018 28/25 Q1016=
METAR MDAB 101900Z 09008KT 9999 SCT020 30/25 Q1016=




Tamaño letra

Contraste

Otros